createdAt,value
2018-09-11T00:01:54.941Z,99.90
2018-09-11T00:04:23.932Z,99.90
2018-09-11T00:06:53.137Z,99.90
2018-09-11T00:09:22.082Z,99.90
2018-09-11T00:11:51.013Z,99.90
2018-09-11T00:14:20.051Z,99.90
2018-09-11T00:16:49.040Z,99.90
2018-09-11T00:19:18.069Z,99.90
2018-09-11T00:21:47.019Z,99.90
2018-09-11T00:24:15.938Z,99.90
2018-09-11T00:26:44.973Z,99.90
2018-09-11T00:29:13.997Z,99.90
2018-09-11T00:31:43.008Z,99.90
2018-09-11T00:34:11.963Z,99.90
2018-09-11T00:36:40.992Z,99.90
2018-09-11T00:39:10.034Z,99.90
2018-09-11T00:41:40.282Z,99.90
2018-09-11T00:44:09.234Z,99.90
2018-09-11T00:46:38.212Z,99.90
2018-09-11T00:49:07.553Z,99.90
2018-09-11T00:51:36.589Z,99.90
2018-09-11T00:54:05.526Z,99.90
2018-09-11T00:56:34.615Z,99.90
2018-09-11T00:59:03.576Z,99.90
2018-09-11T01:01:32.680Z,99.90
2018-09-11T01:04:01.618Z,99.90
2018-09-11T01:06:30.661Z,99.90
2018-09-11T01:08:59.641Z,99.90
2018-09-11T01:11:28.581Z,99.90
2018-09-11T01:13:57.526Z,99.90
2018-09-11T01:16:26.595Z,99.90
2018-09-11T01:18:55.510Z,99.90
2018-09-11T01:21:24.465Z,99.90
2018-09-11T01:23:53.625Z,99.90
2018-09-11T01:26:22.611Z,99.90
2018-09-11T01:28:51.618Z,99.90
2018-09-11T01:31:20.558Z,99.90
2018-09-11T01:33:49.508Z,99.90
2018-09-11T01:36:18.473Z,99.90
2018-09-11T01:38:47.426Z,99.90
2018-09-11T01:41:16.361Z,99.90
2018-09-11T01:43:45.303Z,99.90
2018-09-11T01:46:14.343Z,99.90
2018-09-11T01:48:43.310Z,99.90
2018-09-11T01:51:12.333Z,99.90
2018-09-11T01:53:41.358Z,99.90
2018-09-11T01:56:10.332Z,99.90
2018-09-11T01:58:39.360Z,99.90
2018-09-11T02:01:08.343Z,99.90
2018-09-11T02:03:37.301Z,99.90
2018-09-11T02:06:06.264Z,99.90
2018-09-11T02:08:35.181Z,99.90
2018-09-11T02:11:04.186Z,99.90
2018-09-11T02:13:33.125Z,99.90
2018-09-11T02:16:02.055Z,99.90
2018-09-11T02:18:31.022Z,99.90
2018-09-11T02:21:00.050Z,99.90
2018-09-11T02:23:29.026Z,99.90
2018-09-11T02:25:58.060Z,99.90
2018-09-11T02:28:26.997Z,99.90
2018-09-11T02:30:56.209Z,99.90
2018-09-11T02:33:25.160Z,99.90
2018-09-11T02:35:54.149Z,99.90
2018-09-11T02:38:23.063Z,99.90
2018-09-11T02:40:51.994Z,99.90
2018-09-11T02:43:20.931Z,99.90
2018-09-11T02:45:50.189Z,99.90
2018-09-11T02:48:19.218Z,99.90
2018-09-11T02:50:48.153Z,99.90
2018-09-11T02:53:17.127Z,99.90
2018-09-11T02:55:46.094Z,99.90
2018-09-11T02:58:15.026Z,99.90
2018-09-11T03:00:43.980Z,99.90
2018-09-11T03:03:12.991Z,99.90
2018-09-11T03:05:41.936Z,99.90
2018-09-11T03:08:10.974Z,99.90
2018-09-11T03:10:39.914Z,99.90
2018-09-11T03:13:09.154Z,99.90
2018-09-11T03:15:38.078Z,99.90
2018-09-11T03:18:07.731Z,99.90
2018-09-11T03:20:36.642Z,99.90
2018-09-11T03:23:05.603Z,99.90
2018-09-11T03:25:34.688Z,99.90
2018-09-11T03:28:03.791Z,99.90
2018-09-11T03:30:33.821Z,99.90
2018-09-11T03:33:02.773Z,99.90
2018-09-11T03:35:31.766Z,99.90
2018-09-11T03:38:00.794Z,99.90
2018-09-11T03:40:29.758Z,99.90
2018-09-11T03:42:58.789Z,99.90
2018-09-11T03:45:27.730Z,99.90
2018-09-11T03:47:56.774Z,99.90
2018-09-11T03:50:25.729Z,99.90
2018-09-11T03:52:54.742Z,99.90
2018-09-11T03:55:23.785Z,99.90
2018-09-11T03:57:53.976Z,99.90
2018-09-11T04:00:23.047Z,99.90
2018-09-11T04:02:52.076Z,99.90
2018-09-11T04:05:21.077Z,99.90
2018-09-11T04:07:50.026Z,99.90
2018-09-11T04:10:19.073Z,99.90
2018-09-11T04:12:48.314Z,99.90
2018-09-11T04:15:17.389Z,99.90
2018-09-11T04:17:46.413Z,99.90
2018-09-11T04:20:15.433Z,99.90
2018-09-11T04:22:44.378Z,99.90
2018-09-11T04:25:13.411Z,99.90
2018-09-11T04:27:42.361Z,99.90
2018-09-11T04:30:11.305Z,99.90
2018-09-11T04:32:40.240Z,99.90
2018-09-11T04:35:09.200Z,99.90
2018-09-11T04:37:38.166Z,99.90
2018-09-11T04:40:07.098Z,99.90
2018-09-11T04:42:36.033Z,99.90
2018-09-11T04:45:05.386Z,99.90
2018-09-11T04:47:34.330Z,99.90
2018-09-11T04:50:03.339Z,99.90
2018-09-11T04:52:32.341Z,99.90
2018-09-11T04:55:01.343Z,99.90
2018-09-11T04:57:30.301Z,99.90
2018-09-11T04:59:59.390Z,99.90
2018-09-11T05:02:28.424Z,99.90
2018-09-11T05:04:57.355Z,99.90
2018-09-11T05:07:26.312Z,99.90
2018-09-11T05:09:55.297Z,99.90
2018-09-11T05:12:24.266Z,99.90
2018-09-11T05:14:53.196Z,99.90
2018-09-11T05:17:22.202Z,99.90
2018-09-11T05:19:51.342Z,99.90
2018-09-11T05:22:20.347Z,99.90
2018-09-11T05:24:49.358Z,99.90
2018-09-11T05:27:18.385Z,99.90
2018-09-11T05:29:47.394Z,99.90
2018-09-11T05:32:16.431Z,99.90
2018-09-11T05:34:45.398Z,99.90
2018-09-11T05:37:14.470Z,99.90
2018-09-11T05:39:43.542Z,99.90
2018-09-11T05:42:12.478Z,99.90
2018-09-11T05:44:41.425Z,99.90
2018-09-11T05:47:10.371Z,99.90
2018-09-11T05:49:39.319Z,99.90
2018-09-11T05:52:08.249Z,99.90
2018-09-11T05:54:37.237Z,99.90
2018-09-11T05:57:06.359Z,99.90
2018-09-11T05:59:35.320Z,99.90
2018-09-11T06:02:04.250Z,99.90
2018-09-11T06:04:33.241Z,99.90
2018-09-11T06:07:02.182Z,99.90
2018-09-11T06:09:31.121Z,99.90
2018-09-11T06:12:00.246Z,99.90
2018-09-11T06:14:29.159Z,99.90
2018-09-11T06:16:58.081Z,99.90
2018-09-11T06:19:27.054Z,99.90
2018-09-11T06:21:55.974Z,99.90
2018-09-11T06:24:24.984Z,99.90
2018-09-11T06:26:53.905Z,99.90
2018-09-11T06:29:23.038Z,99.90
2018-09-11T06:31:51.956Z,99.90
2018-09-11T06:34:20.903Z,99.90
2018-09-11T06:36:49.853Z,99.90
2018-09-11T06:39:18.782Z,99.90
2018-09-11T06:41:47.697Z,99.90
2018-09-11T06:44:16.641Z,99.90
2018-09-11T06:46:47.409Z,99.90
2018-09-11T06:49:16.474Z,99.90
2018-09-11T06:51:45.425Z,99.90
2018-09-11T06:54:14.391Z,99.90
2018-09-11T06:56:43.318Z,99.90
2018-09-11T06:59:12.276Z,99.90
2018-09-11T07:01:41.220Z,99.90
2018-09-11T07:04:10.363Z,99.90
2018-09-11T07:06:39.277Z,99.90
2018-09-11T07:09:09.482Z,99.90
2018-09-11T07:11:38.530Z,99.90
2018-09-11T07:14:07.338Z,99.90
2018-09-11T07:16:36.318Z,99.90
2018-09-11T07:19:05.276Z,99.90
2018-09-11T07:21:34.241Z,99.90
2018-09-11T07:24:03.309Z,99.90
2018-09-11T07:26:32.482Z,99.90
2018-09-11T07:29:01.405Z,99.90
2018-09-11T07:31:30.327Z,99.90
2018-09-11T07:33:59.267Z,99.90
2018-09-11T07:36:28.303Z,99.90
2018-09-11T07:38:57.185Z,99.90
2018-09-11T07:41:26.095Z,99.90
2018-09-11T07:43:55.057Z,99.90
2018-09-11T07:46:23.990Z,99.90
2018-09-11T07:48:53.011Z,99.90
2018-09-11T07:51:21.955Z,99.90
2018-09-11T07:53:50.974Z,99.90
2018-09-11T07:56:19.961Z,99.90
2018-09-11T07:58:48.936Z,99.90
2018-09-11T08:01:17.887Z,99.90
2018-09-11T08:03:46.916Z,99.90
2018-09-11T08:06:15.867Z,99.90
2018-09-11T08:08:45.584Z,99.90
2018-09-11T08:11:15.059Z,99.90
2018-09-11T08:13:44.222Z,99.90
2018-09-11T08:16:13.198Z,99.90
2018-09-11T08:18:42.193Z,99.90
2018-09-11T08:21:11.237Z,99.90
2018-09-11T08:23:40.163Z,99.90
2018-09-11T08:26:09.106Z,99.90
2018-09-11T08:28:38.079Z,99.90
2018-09-11T08:31:07.009Z,99.90
2018-09-11T08:33:35.979Z,99.90
2018-09-11T08:36:04.916Z,99.90
2018-09-11T08:38:33.873Z,99.90
2018-09-11T08:41:02.894Z,99.90
2018-09-11T08:43:31.761Z,99.90
2018-09-11T08:46:00.737Z,99.90
2018-09-11T08:48:29.726Z,99.90
2018-09-11T08:50:58.687Z,99.90
2018-09-11T08:53:28.486Z,99.90
2018-09-11T08:55:57.426Z,99.90
2018-09-11T08:58:26.365Z,99.90
2018-09-11T09:00:55.351Z,99.90
2018-09-11T09:03:24.261Z,99.90
2018-09-11T09:05:53.204Z,99.90
2018-09-11T09:08:22.410Z,99.90
2018-09-11T09:10:51.438Z,99.90
2018-09-11T09:13:20.787Z,99.90
2018-09-11T09:15:49.721Z,99.90
2018-09-11T09:18:18.685Z,99.90
2018-09-11T09:20:47.732Z,99.90
2018-09-11T09:23:16.761Z,99.90
2018-09-11T09:25:45.719Z,99.90
2018-09-11T09:28:14.686Z,99.90
2018-09-11T09:30:43.679Z,99.90
2018-09-11T09:33:12.665Z,99.90
2018-09-11T09:35:41.606Z,99.90
2018-09-11T09:38:10.589Z,99.90
2018-09-11T09:40:39.532Z,99.90
2018-09-11T09:43:08.506Z,99.90
2018-09-11T09:45:37.541Z,99.90
2018-09-11T09:48:06.563Z,99.90
2018-09-11T09:50:35.563Z,99.90
2018-09-11T09:53:04.504Z,99.90
2018-09-11T09:55:33.548Z,99.90
2018-09-11T09:58:02.582Z,99.90
2018-09-11T10:00:36.825Z,99.90
2018-09-11T10:03:05.839Z,99.90
2018-09-11T10:05:34.829Z,99.90
2018-09-11T10:08:03.769Z,99.90
2018-09-11T10:10:32.765Z,99.90
2018-09-11T10:13:01.707Z,99.90
2018-09-11T10:15:30.786Z,99.90
2018-09-11T10:17:59.735Z,99.90
2018-09-11T10:20:28.657Z,99.90
2018-09-11T10:22:57.602Z,99.90
2018-09-11T10:25:26.541Z,99.90
2018-09-11T10:27:55.491Z,99.90
2018-09-11T10:30:24.440Z,99.90
2018-09-11T10:32:53.430Z,99.90
2018-09-11T10:35:22.378Z,99.90
2018-09-11T10:37:51.307Z,99.90
2018-09-11T10:40:20.262Z,99.30
2018-09-11T10:42:49.202Z,99.10
2018-09-11T10:45:19.202Z,99.50
2018-09-11T10:47:48.168Z,99.30
2018-09-11T10:50:17.109Z,99.10
2018-09-11T10:52:46.037Z,98.90
2018-09-11T10:55:15.041Z,99.30
2018-09-11T10:57:44.021Z,98.40
2018-09-11T11:00:12.976Z,97.90
2018-09-11T11:02:42.058Z,97.70
2018-09-11T11:05:10.975Z,97.30
2018-09-11T11:07:40.604Z,97.30
2018-09-11T11:10:09.528Z,98.00
2018-09-11T11:12:38.468Z,97.40
2018-09-11T11:15:07.455Z,97.60
2018-09-11T11:17:36.404Z,97.20
2018-09-11T11:20:05.442Z,97.70
2018-09-11T11:22:34.390Z,97.20
2018-09-11T11:25:03.316Z,96.60
2018-09-11T11:27:32.284Z,95.80
2018-09-11T11:30:01.248Z,95.90
2018-09-11T11:32:30.178Z,96.00
2018-09-11T11:34:59.130Z,96.00
2018-09-11T11:37:28.293Z,95.30
2018-09-11T11:39:57.050Z,95.50
2018-09-11T11:42:26.071Z,95.00
2018-09-11T11:44:54.974Z,95.00
2018-09-11T11:47:23.975Z,94.90
2018-09-11T11:49:53.271Z,95.30
2018-09-11T11:52:22.237Z,95.00
2018-09-11T11:54:51.572Z,94.10
2018-09-11T11:57:20.453Z,93.70
2018-09-11T11:59:49.434Z,93.70
2018-09-11T12:02:18.443Z,95.10
2018-09-11T12:04:47.397Z,93.60
2018-09-11T12:07:16.322Z,94.20
2018-09-11T12:09:45.276Z,94.40
2018-09-11T12:12:14.226Z,93.90
2018-09-11T12:14:43.190Z,93.90
2018-09-11T12:17:12.311Z,93.20
2018-09-11T12:19:41.253Z,93.60
2018-09-11T12:22:10.188Z,93.80
2018-09-11T12:24:39.131Z,92.20
2018-09-11T12:27:08.076Z,92.50
2018-09-11T12:29:37.019Z,92.50
2018-09-11T12:32:06.040Z,92.70
2018-09-11T12:34:34.989Z,91.90
2018-09-11T12:37:03.924Z,91.60
2018-09-11T12:39:32.862Z,92.20
2018-09-11T12:42:01.808Z,92.50
2018-09-11T12:44:30.737Z,91.50
2018-09-11T12:46:59.796Z,90.60
2018-09-11T12:49:29.084Z,90.40
2018-09-11T12:51:58.053Z,90.20
2018-09-11T12:54:27.011Z,90.10
2018-09-11T12:56:55.942Z,89.60
2018-09-11T12:59:24.889Z,89.00
2018-09-11T13:01:53.836Z,90.40
2018-09-11T13:04:22.823Z,88.20
2018-09-11T13:06:51.737Z,89.60
2018-09-11T13:09:20.730Z,87.60
2018-09-11T13:11:49.689Z,87.80
2018-09-11T13:14:18.632Z,87.70
2018-09-11T13:16:47.658Z,87.90
2018-09-11T13:19:17.612Z,88.80
2018-09-11T13:21:46.945Z,88.40
2018-09-11T13:24:15.909Z,87.00
2018-09-11T13:26:44.855Z,86.10
2018-09-11T13:29:13.810Z,87.00
2018-09-11T13:31:42.791Z,86.20
2018-09-11T13:34:11.739Z,86.40
2018-09-11T13:36:40.727Z,85.50
2018-09-11T13:39:10.259Z,85.00
2018-09-11T13:41:39.175Z,85.40
2018-09-11T13:44:08.160Z,85.90
2018-09-11T13:46:37.109Z,85.10
2018-09-11T13:49:06.067Z,85.00
2018-09-11T13:51:35.007Z,84.90
2018-09-11T13:54:03.969Z,84.30
2018-09-11T13:56:32.921Z,84.10
2018-09-11T13:59:01.877Z,83.50
2018-09-11T14:01:30.830Z,84.40
2018-09-11T14:03:59.797Z,85.40
2018-09-11T14:06:28.747Z,85.00
2018-09-11T14:08:57.688Z,85.00
2018-09-11T14:11:26.610Z,83.90
2018-09-11T14:13:55.556Z,83.30
2018-09-11T14:16:24.482Z,83.60
2018-09-11T14:18:53.459Z,83.40
2018-09-11T14:21:22.449Z,84.20
2018-09-11T14:23:51.466Z,83.70
2018-09-11T14:26:20.443Z,83.40
2018-09-11T14:28:49.515Z,83.20
2018-09-11T14:31:18.637Z,83.40
2018-09-11T14:33:47.582Z,84.00
2018-09-11T14:36:16.520Z,84.00
2018-09-11T14:38:45.485Z,83.80
2018-09-11T14:41:15.425Z,83.10
2018-09-11T14:43:44.423Z,83.50
2018-09-11T14:46:13.373Z,83.00
2018-09-11T14:48:42.439Z,84.10
2018-09-11T14:51:11.510Z,83.10
2018-09-11T14:53:40.510Z,84.10
2018-09-11T14:56:09.494Z,85.10
2018-09-11T14:58:38.531Z,83.90
2018-09-11T15:01:07.478Z,83.90
2018-09-11T15:03:36.431Z,82.80
2018-09-11T15:06:05.409Z,83.20
2018-09-11T15:08:34.361Z,82.80
2018-09-11T15:11:03.330Z,83.40
2018-09-11T15:13:32.270Z,83.80
2018-09-11T15:16:01.617Z,84.50
2018-09-11T15:18:30.589Z,83.00
2018-09-11T15:20:59.580Z,83.50
2018-09-11T15:23:28.532Z,82.90
2018-09-11T15:25:58.556Z,83.40
2018-09-11T15:28:27.485Z,82.10
2018-09-11T15:30:56.425Z,82.80
2018-09-11T15:33:25.397Z,82.70
2018-09-11T15:35:54.391Z,83.00
2018-09-11T15:38:23.257Z,83.30
2018-09-11T15:40:52.493Z,85.80
2018-09-11T15:43:22.122Z,85.60
2018-09-11T15:45:51.174Z,84.70
2018-09-11T15:48:21.246Z,83.20
2018-09-11T15:50:50.276Z,84.20
2018-09-11T15:53:19.626Z,83.80
2018-09-11T15:55:48.744Z,84.30
2018-09-11T15:58:18.743Z,84.90
2018-09-11T16:00:47.747Z,85.60
2018-09-11T16:03:16.739Z,85.90
2018-09-11T16:05:45.777Z,85.90
2018-09-11T16:08:14.907Z,85.50
2018-09-11T16:10:44.071Z,85.50
2018-09-11T16:13:13.017Z,87.00
2018-09-11T16:15:42.004Z,88.10
2018-09-11T16:18:11.098Z,88.40
2018-09-11T16:20:40.098Z,88.60
2018-09-11T16:23:09.241Z,87.70
2018-09-11T16:25:38.257Z,86.30
2018-09-11T16:28:07.206Z,87.90
2018-09-11T16:30:36.229Z,87.40
2018-09-11T16:33:05.248Z,86.90
2018-09-11T16:35:34.325Z,87.40
2018-09-11T16:38:03.605Z,90.40
2018-09-11T16:40:32.633Z,87.30
2018-09-11T16:43:01.794Z,87.40
2018-09-11T16:45:30.813Z,86.70
2018-09-11T16:48:00.043Z,86.90
2018-09-11T16:50:29.135Z,88.10
2018-09-11T16:52:58.066Z,87.90
2018-09-11T16:55:27.016Z,90.50
2018-09-11T16:57:56.047Z,89.20
2018-09-11T17:00:25.127Z,88.70
2018-09-11T17:02:54.152Z,89.40
2018-09-11T17:05:23.175Z,89.10
2018-09-11T17:07:52.165Z,90.10
2018-09-11T17:10:21.132Z,90.00
2018-09-11T17:12:50.142Z,89.40
2018-09-11T17:15:19.137Z,90.10
2018-09-11T17:17:48.086Z,90.20
2018-09-11T17:20:17.230Z,91.20
2018-09-11T17:22:46.115Z,90.40
2018-09-11T17:25:15.109Z,90.50
2018-09-11T17:27:44.125Z,90.30
2018-09-11T17:30:13.184Z,90.70
2018-09-11T17:32:42.186Z,90.60
2018-09-11T17:35:11.185Z,90.90
2018-09-11T17:37:40.178Z,92.60
2018-09-11T17:40:09.146Z,91.80
2018-09-11T17:42:38.124Z,91.80
2018-09-11T17:45:07.085Z,91.90
2018-09-11T17:47:36.038Z,91.90
2018-09-11T17:50:05.239Z,92.50
2018-09-11T17:52:34.237Z,92.90
2018-09-11T17:55:03.168Z,92.70
2018-09-11T17:57:32.158Z,93.30
2018-09-11T18:00:01.092Z,93.00
2018-09-11T18:02:30.130Z,93.40
2018-09-11T18:04:59.074Z,93.90
2018-09-11T18:07:28.055Z,94.40
2018-09-11T18:09:57.002Z,95.20
2018-09-11T18:12:25.941Z,95.40
2018-09-11T18:14:54.886Z,95.30
2018-09-11T18:17:23.850Z,95.90
2018-09-11T18:19:52.774Z,96.40
2018-09-11T18:22:21.759Z,96.50
2018-09-11T18:24:50.734Z,96.60
2018-09-11T18:27:19.746Z,96.70
2018-09-11T18:29:48.814Z,97.40
2018-09-11T18:32:18.598Z,98.20
2018-09-11T18:34:47.722Z,98.30
2018-09-11T18:37:16.886Z,98.30
2018-09-11T18:39:45.876Z,98.80
2018-09-11T18:42:15.085Z,99.50
2018-09-11T18:44:44.125Z,99.50
2018-09-11T18:47:13.263Z,99.40
2018-09-11T18:49:42.382Z,99.90
2018-09-11T18:52:11.339Z,99.90
2018-09-11T18:54:42.504Z,99.70
2018-09-11T18:57:11.474Z,99.90
2018-09-11T18:59:40.446Z,99.90
2018-09-11T19:02:09.390Z,99.60
2018-09-11T19:04:38.942Z,99.50
2018-09-11T19:07:07.910Z,99.40
2018-09-11T19:09:36.862Z,99.70
2018-09-11T19:12:06.259Z,99.40
2018-09-11T19:14:35.257Z,99.00
2018-09-11T19:17:04.204Z,99.20
2018-09-11T19:19:33.138Z,98.70
2018-09-11T19:22:02.076Z,98.50
2018-09-11T19:24:31.019Z,98.70
2018-09-11T19:27:00.023Z,98.50
2018-09-11T19:29:28.962Z,98.60
2018-09-11T19:31:57.929Z,98.60
2018-09-11T19:34:26.865Z,98.60
2018-09-11T19:36:55.809Z,98.80
2018-09-11T19:39:24.773Z,98.60
2018-09-11T19:41:53.725Z,98.50
2018-09-11T19:44:22.666Z,98.80
2018-09-11T19:46:51.633Z,99.00
2018-09-11T19:49:20.579Z,98.80
2018-09-11T19:51:49.520Z,99.10
2018-09-11T19:54:18.574Z,99.30
2018-09-11T19:56:47.577Z,99.50
2018-09-11T19:59:16.589Z,99.50
2018-09-11T20:01:45.593Z,99.50
2018-09-11T20:04:15.713Z,99.90
2018-09-11T20:06:44.771Z,99.90
2018-09-11T20:09:13.806Z,99.90
2018-09-11T20:11:42.818Z,99.90
2018-09-11T20:14:11.793Z,99.90
2018-09-11T20:16:41.183Z,99.90
2018-09-11T20:19:10.278Z,99.90
2018-09-11T20:21:39.316Z,99.90
2018-09-11T20:24:08.301Z,99.90
2018-09-11T20:26:37.502Z,99.90
2018-09-11T20:29:06.478Z,99.90
2018-09-11T20:31:35.545Z,99.90
2018-09-11T20:34:04.478Z,99.90
2018-09-11T20:36:33.421Z,99.90
2018-09-11T20:39:02.825Z,99.90
2018-09-11T20:41:31.930Z,99.90
2018-09-11T20:44:00.969Z,99.90
2018-09-11T20:46:30.218Z,99.90
2018-09-11T20:48:59.130Z,99.90
2018-09-11T20:51:28.113Z,99.90
2018-09-11T20:53:57.058Z,99.90
2018-09-11T20:56:26.105Z,99.90
2018-09-11T20:58:55.134Z,99.90
2018-09-11T21:01:24.111Z,99.90
2018-09-11T21:03:53.050Z,99.90
2018-09-11T21:06:22.110Z,99.90
2018-09-11T21:08:51.049Z,99.90
2018-09-11T21:11:20.012Z,99.90
2018-09-11T21:13:48.941Z,99.90
2018-09-11T21:16:17.920Z,99.90
2018-09-11T21:18:46.888Z,99.90
2018-09-11T21:21:15.829Z,99.90
2018-09-11T21:23:44.801Z,99.90
2018-09-11T21:26:13.750Z,99.90
2018-09-11T21:28:42.705Z,99.90
2018-09-11T21:31:11.670Z,99.90
2018-09-11T21:33:40.622Z,99.90
2018-09-11T21:36:09.581Z,99.90
2018-09-11T21:38:38.535Z,99.90
2018-09-11T21:41:07.518Z,99.90
2018-09-11T21:43:36.486Z,99.90
2018-09-11T21:46:05.453Z,99.90
2018-09-11T21:48:34.415Z,99.90
2018-09-11T21:51:03.353Z,99.90
2018-09-11T21:53:32.303Z,99.90
2018-09-11T21:56:01.334Z,99.90
2018-09-11T21:58:30.281Z,99.90
2018-09-11T22:01:06.479Z,99.90
2018-09-11T22:03:35.441Z,99.90
2018-09-11T22:06:04.362Z,99.90
2018-09-11T22:08:33.352Z,99.90
2018-09-11T22:11:02.293Z,99.90
2018-09-11T22:13:31.237Z,99.90
2018-09-11T22:16:00.180Z,99.90
2018-09-11T22:18:29.236Z,99.90
2018-09-11T22:20:58.173Z,99.90
2018-09-11T22:23:27.154Z,99.90
2018-09-11T22:25:56.105Z,99.90
2018-09-11T22:28:25.034Z,99.90
2018-09-11T22:30:53.989Z,99.90
2018-09-11T22:33:23.078Z,99.90
2018-09-11T22:35:52.055Z,99.90
2018-09-11T22:38:21.016Z,99.90
2018-09-11T22:40:50.001Z,99.90
2018-09-11T22:43:18.938Z,99.90
2018-09-11T22:45:47.888Z,99.90
2018-09-11T22:48:16.889Z,99.90
2018-09-11T22:50:45.830Z,99.90
2018-09-11T22:53:14.783Z,99.90
2018-09-11T22:55:43.713Z,99.90
2018-09-11T22:58:12.671Z,99.90
2018-09-11T23:00:41.741Z,99.90
2018-09-11T23:03:10.674Z,99.90
2018-09-11T23:05:39.610Z,99.90
2018-09-11T23:08:08.529Z,99.90
2018-09-11T23:10:37.514Z,99.90
2018-09-11T23:13:06.425Z,99.90
2018-09-11T23:15:35.622Z,99.90
2018-09-11T23:18:04.661Z,99.90
2018-09-11T23:20:33.609Z,99.90
2018-09-11T23:23:02.528Z,99.90
2018-09-11T23:25:31.493Z,99.90
2018-09-11T23:28:00.507Z,99.90
2018-09-11T23:30:29.434Z,99.90
2018-09-11T23:32:58.413Z,99.90
2018-09-11T23:35:27.473Z,99.90
2018-09-11T23:37:56.600Z,99.90
2018-09-11T23:40:25.553Z,99.90
2018-09-11T23:42:54.592Z,99.90
2018-09-11T23:45:23.737Z,99.90
2018-09-11T23:47:52.668Z,99.90
2018-09-11T23:50:21.621Z,99.90
2018-09-11T23:52:50.562Z,99.90
2018-09-11T23:55:19.502Z,99.90
2018-09-11T23:57:48.561Z,99.90
